Time;durP1;ratioP1;P1;durP2;ratioP2;P2;SDS_P1;SDS_P2;PMS_P1;PMS_P2;Temp;Humidity;BMP_temperature;BMP_pressure;BME280_temperature;BME280_humidity;BME280_pressure;Samples;Min_cycle;Max_cycle;Signal;HPM_P1;HPM_P2
2021/09/09 00:01:25;;;;;;;15.95;10.70;;;19.70;71.30;;;;;;5110978;28;20081;-79
2021/09/09 00:03:51;;;;;;;12.18;9.80;;;19.70;72.00;;;;;;5094363;28;20028;-79
2021/09/09 00:06:17;;;;;;;15.75;10.07;;;19.70;71.50;;;;;;5081170;28;20392;-79
2021/09/09 00:08:42;;;;;;;13.15;10.35;;;19.70;71.50;;;;;;5093791;28;20064;-79
2021/09/09 00:11:08;;;;;;;14.85;10.55;;;19.70;71.60;;;;;;5093940;28;20485;-79
2021/09/09 00:13:34;;;;;;;14.98;9.75;;;19.70;71.70;;;;;;5093883;28;20020;-79
2021/09/09 00:16:00;;;;;;;21.10;11.00;;;19.60;71.90;;;;;;5092427;28;20149;-79
2021/09/09 00:18:26;;;;;;;16.88;10.57;;;19.60;71.90;;;;;;5093585;28;20029;-79
2021/09/09 00:20:52;;;;;;;18.02;11.50;;;19.60;72.00;;;;;;5112822;28;20272;-79
2021/09/09 00:23:17;;;;;;;15.10;10.80;;;19.60;72.00;;;;;;5112897;28;20028;-79
2021/09/09 00:25:43;;;;;;;17.33;10.80;;;19.60;72.10;;;;;;5113992;28;20028;-79
2021/09/09 00:28:08;;;;;;;12.75;9.75;;;19.60;72.30;;;;;;5112726;28;20057;-79
2021/09/09 00:30:34;;;;;;;13.88;9.82;;;19.50;72.30;;;;;;5111742;28;20038;-79
2021/09/09 00:33:00;;;;;;;12.57;9.88;;;19.50;73.10;;;;;;5113784;28;20030;-79
2021/09/09 00:35:26;;;;;;;13.52;10.18;;;19.50;72.60;;;;;;5113715;28;20036;-79
2021/09/09 00:37:51;;;;;;;15.77;10.43;;;19.50;72.80;;;;;;5113750;28;20053;-79
2021/09/09 00:40:17;;;;;;;13.85;10.55;;;19.40;72.90;;;;;;5096147;28;20063;-79
2021/09/09 00:42:43;;;;;;;12.93;11.23;;;19.40;73.10;;;;;;5092199;28;20476;-79
2021/09/09 00:45:09;;;;;;;16.40;11.50;;;19.30;73.20;;;;;;5106689;28;20062;-79
2021/09/09 00:47:35;;;;;;;18.38;11.55;;;19.30;73.50;;;;;;5113742;28;20043;-79
2021/09/09 00:50:01;;;;;;;17.50;12.40;;;19.30;74.60;;;;;;5113668;28;20023;-79
2021/09/09 00:52:27;;;;;;;15.55;12.65;;;19.20;74.30;;;;;;5112292;28;20068;-79
2021/09/09 00:54:53;;;;;;;16.08;11.15;;;19.20;74.30;;;;;;5090712;28;20032;-79
2021/09/09 00:57:19;;;;;;;15.40;11.32;;;19.20;74.40;;;;;;5093934;28;20103;-79
2021/09/09 00:59:45;;;;;;;16.02;10.65;;;19.10;74.40;;;;;;5113066;28;20027;-79
2021/09/09 01:02:11;;;;;;;13.65;10.32;;;19.10;74.50;;;;;;5111998;28;20125;-79
2021/09/09 01:04:37;;;;;;;18.05;10.98;;;19.10;74.70;;;;;;5111688;28;20110;-79
2021/09/09 01:07:03;;;;;;;13.43;11.43;;;19.10;74.70;;;;;;5109664;28;20119;-79
2021/09/09 01:09:29;;;;;;;14.55;11.38;;;19.00;74.80;;;;;;5091748;28;20051;-79
2021/09/09 01:11:55;;;;;;;14.65;10.65;;;19.00;74.90;;;;;;5093013;28;20024;-79
2021/09/09 01:14:21;;;;;;;19.15;12.02;;;19.00;75.00;;;;;;5093121;28;20034;-79
2021/09/09 01:16:48;;;;;;;16.00;11.82;;;19.00;74.90;;;;;;5103222;28;20027;-79
2021/09/09 01:19:14;;;;;;;17.48;11.85;;;19.00;75.10;;;;;;5113517;28;20126;-79
2021/09/09 01:21:41;;;;;;;15.27;11.15;;;19.00;75.30;;;;;;5107145;28;20118;-79
2021/09/09 01:24:17;;;;;;;14.63;11.15;;;18.90;75.40;;;;;;5080950;28;20040;-79
2021/09/09 01:26:48;;;;;;;15.38;11.35;;;18.80;75.60;;;;;;5107743;28;20442;-79
2021/09/09 01:29:13;;;;;;;15.43;12.02;;;18.80;75.90;;;;;;5111935;28;20035;-79
2021/09/09 01:31:39;;;;;;;14.35;11.27;;;18.80;76.00;;;;;;5103158;28;20401;-80
2021/09/09 01:34:06;;;;;;;15.02;10.98;;;18.80;76.20;;;;;;5091797;28;20040;-80
2021/09/09 01:36:32;;;;;;;14.52;11.20;;;18.80;76.30;;;;;;5097012;28;20038;-79
2021/09/09 01:38:58;;;;;;;15.35;11.30;;;18.80;76.30;;;;;;5111492;28;20035;-79
2021/09/09 01:41:24;;;;;;;16.83;11.95;;;18.70;76.30;;;;;;5115400;28;20027;-79
2021/09/09 01:43:50;;;;;;;15.63;12.13;;;18.70;76.30;;;;;;5115572;28;20028;-79
2021/09/09 01:46:15;;;;;;;17.63;12.52;;;18.70;76.50;;;;;;5116696;28;20365;-79
2021/09/09 01:48:41;;;;;;;17.08;11.45;;;18.60;76.60;;;;;;5098564;28;20043;-80
2021/09/09 01:51:07;;;;;;;16.48;11.77;;;18.60;76.70;;;;;;5117324;28;20376;-79
2021/09/09 01:53:32;;;;;;;14.52;11.55;;;18.60;76.70;;;;;;5116768;28;20035;-79
2021/09/09 01:55:58;;;;;;;13.60;11.52;;;18.50;76.70;;;;;;5115752;28;20480;-79
2021/09/09 01:58:24;;;;;;;14.02;11.45;;;18.50;76.80;;;;;;5116160;28;20162;-79
2021/09/09 02:00:49;;;;;;;14.88;11.80;;;18.50;76.90;;;;;;5115153;28;20035;-79
2021/09/09 02:03:15;;;;;;;16.02;11.38;;;18.50;76.90;;;;;;5097576;28;20034;-79
2021/09/09 02:05:40;;;;;;;16.88;11.68;;;18.50;77.00;;;;;;5116147;28;20031;-79
2021/09/09 02:08:06;;;;;;;16.17;12.07;;;18.50;77.10;;;;;;5114947;28;20062;-79
2021/09/09 02:10:32;;;;;;;15.18;12.35;;;18.40;77.20;;;;;;5106347;28;20038;-79
2021/09/09 02:12:58;;;;;;;14.77;11.52;;;18.40;77.20;;;;;;5098742;28;20058;-79
2021/09/09 02:15:24;;;;;;;13.50;11.60;;;18.40;77.40;;;;;;5099233;28;20063;-79
2021/09/09 02:17:50;;;;;;;16.50;12.40;;;18.40;77.40;;;;;;5095990;28;20056;-79
2021/09/09 02:20:16;;;;;;;16.05;12.25;;;18.40;77.40;;;;;;5095948;28;20056;-79
2021/09/09 02:22:41;;;;;;;13.73;11.55;;;18.40;77.40;;;;;;5096172;28;20032;-79
2021/09/09 02:25:08;;;;;;;18.38;12.07;;;18.40;77.40;;;;;;5094587;28;20077;-79
2021/09/09 02:27:34;;;;;;;14.15;11.43;;;18.30;77.50;;;;;;5095731;28;20028;-79
2021/09/09 02:29:59;;;;;;;15.30;12.02;;;18.40;77.80;;;;;;5094269;28;20139;-79
2021/09/09 02:32:25;;;;;;;14.45;11.68;;;18.30;77.70;;;;;;5076984;28;20020;-79
2021/09/09 02:34:50;;;;;;;13.23;11.60;;;18.30;77.70;;;;;;5105891;28;20053;-79
2021/09/09 02:37:16;;;;;;;16.38;11.55;;;18.30;77.90;;;;;;5115611;28;20483;-79
2021/09/09 02:39:46;;;;;;;13.80;11.80;;;18.30;78.00;;;;;;5115885;28;20059;-79
2021/09/09 02:42:12;;;;;;;16.13;11.85;;;18.30;78.10;;;;;;5114618;28;20535;-79
2021/09/09 02:44:38;;;;;;;14.90;11.77;;;18.30;78.20;;;;;;5113233;28;20035;-79
2021/09/09 02:47:04;;;;;;;14.13;12.20;;;18.30;78.40;;;;;;5114509;28;20038;-79
2021/09/09 02:49:29;;;;;;;15.60;12.30;;;18.30;78.50;;;;;;5114410;28;20035;-79
2021/09/09 02:51:55;;;;;;;13.90;11.55;;;18.20;78.50;;;;;;5114637;28;20041;-79
2021/09/09 02:54:21;;;;;;;14.23;11.90;;;18.20;78.60;;;;;;5115469;28;20030;-79
2021/09/09 02:56:46;;;;;;;15.18;11.65;;;18.20;78.70;;;;;;5097210;28;20059;-79
2021/09/09 02:59:12;;;;;;;16.15;12.88;;;18.10;78.70;;;;;;5113987;28;20056;-79
2021/09/09 03:01:38;;;;;;;17.98;12.52;;;18.10;78.90;;;;;;5113579;28;20104;-79
2021/09/09 03:04:04;;;;;;;17.20;11.75;;;18.00;78.90;;;;;;5114259;28;20484;-79
2021/09/09 03:06:30;;;;;;;14.60;11.93;;;18.00;79.00;;;;;;5114208;28;20039;-79
2021/09/09 03:08:56;;;;;;;15.23;12.15;;;18.00;79.20;;;;;;5113969;28;20081;-79
2021/09/09 03:11:21;;;;;;;16.25;12.35;;;18.00;79.30;;;;;;5115275;28;20052;-79
2021/09/09 03:13:47;;;;;;;15.93;12.73;;;18.00;79.30;;;;;;5115123;28;20034;-79
2021/09/09 03:16:12;;;;;;;13.93;11.80;;;18.00;79.30;;;;;;5115125;28;20027;-79
2021/09/09 03:18:38;;;;;;;15.45;12.05;;;17.90;79.30;;;;;;5113715;28;20392;-80
2021/09/09 03:21:04;;;;;;;15.05;12.30;;;17.90;79.50;;;;;;5113898;28;20034;-79
2021/09/09 03:23:29;;;;;;;15.82;11.77;;;17.90;79.60;;;;;;5096877;28;20045;-79
2021/09/09 03:25:55;;;;;;;15.73;12.30;;;17.90;79.60;;;;;;5113970;28;20043;-79
2021/09/09 03:28:21;;;;;;;15.18;11.35;;;17.80;79.80;;;;;;5097241;28;20385;-79
2021/09/09 03:30:46;;;;;;;15.80;11.68;;;17.80;80.50;;;;;;5115132;28;20038;-79
2021/09/09 03:33:12;;;;;;;13.98;11.77;;;17.80;80.10;;;;;;5080897;28;20408;-79
2021/09/09 03:35:37;;;;;;;18.85;11.90;;;17.70;80.10;;;;;;5113499;28;20107;-79
2021/09/09 03:38:03;;;;;;;15.85;11.70;;;17.70;80.30;;;;;;5097023;28;20373;-79
2021/09/09 03:40:29;;;;;;;15.10;11.85;;;17.70;80.50;;;;;;5059787;28;20507;-79
2021/09/09 03:42:54;;;;;;;17.90;13.13;;;17.60;80.60;;;;;;5093069;28;20488;-79
2021/09/09 03:45:20;;;;;;;14.95;12.15;;;17.60;80.90;;;;;;5094266;28;20107;-79
2021/09/09 03:47:46;;;;;;;15.52;12.27;;;17.60;81.10;;;;;;5076205;28;20038;-79
2021/09/09 03:50:11;;;;;;;16.00;13.63;;;17.50;81.20;;;;;;5076029;28;20036;-79
2021/09/09 03:52:37;;;;;;;16.15;12.25;;;17.50;81.30;;;;;;5094115;28;20434;-79
2021/09/09 03:55:03;;;;;;;16.00;13.10;;;17.50;81.50;;;;;;5075715;28;20028;-79
2021/09/09 03:57:29;;;;;;;15.98;13.00;;;17.50;81.60;;;;;;5093850;28;20229;-79
2021/09/09 03:59:55;;;;;;;15.18;12.18;;;17.50;81.70;;;;;;5092860;28;20141;-79
2021/09/09 04:02:20;;;;;;;16.83;11.93;;;17.50;81.80;;;;;;5097452;28;20028;-79
2021/09/09 04:04:46;;;;;;;15.65;12.98;;;17.40;81.80;;;;;;5112909;28;20024;-79
2021/09/09 04:07:12;;;;;;;18.05;12.38;;;17.40;81.80;;;;;;5113099;28;20101;-79
2021/09/09 04:09:37;;;;;;;17.85;13.07;;;17.30;81.80;;;;;;5113149;28;20085;-79
2021/09/09 04:12:04;;;;;;;21.00;14.15;;;17.40;81.90;;;;;;5095792;28;20051;-79
2021/09/09 04:14:30;;;;;;;20.83;14.13;;;17.40;81.90;;;;;;5110745;28;20035;-79
2021/09/09 04:16:56;;;;;;;16.25;12.65;;;17.40;81.90;;;;;;5109353;28;20032;-79
2021/09/09 04:19:23;;;;;;;17.10;13.20;;;17.30;81.90;;;;;;5092308;28;20599;-79
2021/09/09 04:21:50;;;;;;;17.20;13.40;;;17.30;81.90;;;;;;5092101;28;20042;-79
2021/09/09 04:24:16;;;;;;;14.38;12.20;;;17.40;82.10;;;;;;5103722;28;20027;-79
2021/09/09 04:26:41;;;;;;;20.60;12.48;;;17.30;82.20;;;;;;5112284;28;20037;-79
2021/09/09 04:29:07;;;;;;;15.73;13.32;;;17.30;82.20;;;;;;5113411;28;20080;-79
2021/09/09 04:31:34;;;;;;;15.38;11.55;;;17.30;82.20;;;;;;5100321;28;20490;-79
2021/09/09 04:33:59;;;;;;;19.50;12.93;;;17.30;82.30;;;;;;5091816;28;20027;-79
2021/09/09 04:36:25;;;;;;;17.08;12.90;;;17.30;82.40;;;;;;5099351;28;20445;-79
2021/09/09 04:38:51;;;;;;;16.60;12.73;;;17.30;82.40;;;;;;5109012;28;20020;-79
2021/09/09 04:41:16;;;;;;;17.30;12.25;;;17.30;82.40;;;;;;5111732;28;20475;-79
2021/09/09 04:43:42;;;;;;;15.32;12.55;;;17.30;82.40;;;;;;5093876;28;20023;-79
2021/09/09 04:46:08;;;;;;;15.98;13.10;;;17.30;82.40;;;;;;5110480;28;20051;-79
2021/09/09 04:48:33;;;;;;;19.35;12.30;;;17.30;82.30;;;;;;5110657;28;20023;-79
2021/09/09 04:50:59;;;;;;;16.98;12.63;;;17.40;82.40;;;;;;5096832;28;20029;-79
2021/09/09 04:53:25;;;;;;;17.45;13.02;;;17.30;82.40;;;;;;5094544;28;20028;-79
2021/09/09 04:55:50;;;;;;;17.48;12.85;;;17.40;82.40;;;;;;5109296;28;20088;-79
2021/09/09 04:58:16;;;;;;;25.95;12.73;;;17.40;82.40;;;;;;5096067;28;20040;-79
2021/09/09 05:00:41;;;;;;;20.13;12.73;;;17.40;82.40;;;;;;5091627;28;20047;-79
2021/09/09 05:03:07;;;;;;;16.98;12.57;;;17.40;83.00;;;;;;5095796;28;20089;-79
2021/09/09 05:05:34;;;;;;;21.10;13.75;;;17.40;82.40;;;;;;5111929;28;20047;-79
2021/09/09 05:07:59;;;;;;;21.00;13.82;;;17.40;82.50;;;;;;5112138;28;20020;-79
2021/09/09 05:10:25;;;;;;;18.85;14.57;;;17.40;82.50;;;;;;5098675;28;20028;-79
2021/09/09 05:12:51;;;;;;;29.88;14.63;;;17.30;82.50;;;;;;5093122;28;20038;-79
2021/09/09 05:15:17;;;;;;;21.25;13.82;;;17.30;82.60;;;;;;5075182;28;20133;-79
2021/09/09 05:17:42;;;;;;;26.05;13.45;;;17.30;82.70;;;;;;5081397;28;20061;-79
2021/09/09 05:20:09;;;;;;;18.65;12.98;;;17.30;82.70;;;;;;5062514;28;20043;-79
2021/09/09 05:22:35;;;;;;;18.50;13.88;;;17.30;82.80;;;;;;5078865;28;20603;-79
2021/09/09 05:25:02;;;;;;;19.52;13.20;;;17.30;83.00;;;;;;5111935;28;20027;-79
2021/09/09 05:27:28;;;;;;;19.90;13.25;;;17.30;83.20;;;;;;5097366;28;20485;-79
2021/09/09 05:29:53;;;;;;;18.92;13.38;;;17.30;83.30;;;;;;5115752;28;20169;-79
2021/09/09 05:32:19;;;;;;;17.85;13.07;;;17.30;83.40;;;;;;5109582;28;20051;-79
2021/09/09 05:34:44;;;;;;;20.52;13.15;;;17.30;83.50;;;;;;5089237;28;20034;-79
2021/09/09 05:37:10;;;;;;;22.27;14.32;;;17.30;83.60;;;;;;5098842;28;20036;-79
2021/09/09 05:39:36;;;;;;;16.42;13.27;;;17.30;83.70;;;;;;5115693;28;20032;-78
2021/09/09 05:42:01;;;;;;;18.38;12.80;;;17.30;83.70;;;;;;5098838;28;20067;-78
2021/09/09 05:44:27;;;;;;;17.48;12.80;;;17.30;83.70;;;;;;5100105;28;20034;-78
2021/09/09 05:46:53;;;;;;;18.85;13.63;;;17.30;83.80;;;;;;5095496;28;20384;-78
2021/09/09 05:49:18;;;;;;;17.17;13.25;;;17.30;83.80;;;;;;5096847;28;20035;-78
2021/09/09 05:51:44;;;;;;;16.55;12.65;;;17.30;83.80;;;;;;5078653;28;20435;-78
2021/09/09 05:54:10;;;;;;;20.70;13.77;;;17.40;83.80;;;;;;5109003;28;20115;-78
2021/09/09 05:56:36;;;;;;;18.95;14.85;;;17.50;83.70;;;;;;5115601;28;20016;-78
2021/09/09 05:59:02;;;;;;;20.42;14.82;;;17.50;83.50;;;;;;5110148;28;20650;-78
2021/09/09 06:01:30;;;;;;;26.40;15.30;;;17.50;83.40;;;;;;5095018;28;20081;-78
2021/09/09 06:03:57;;;;;;;20.88;14.20;;;17.60;83.50;;;;;;5096488;28;20035;-78
2021/09/09 06:06:25;;;;;;;19.95;14.73;;;17.60;83.40;;;;;;5094822;28;20089;-78
2021/09/09 06:08:51;;;;;;;22.02;15.18;;;17.60;83.50;;;;;;5103554;28;20028;-78
2021/09/09 06:11:16;;;;;;;23.85;14.30;;;17.70;83.50;;;;;;5116496;28;20050;-78
2021/09/09 06:13:42;;;;;;;21.40;14.52;;;17.70;83.40;;;;;;5115503;28;20034;-78
2021/09/09 06:16:07;;;;;;;22.75;14.85;;;17.80;83.30;;;;;;5112083;28;20073;-78
2021/09/09 06:18:34;;;;;;;19.70;14.23;;;17.80;83.00;;;;;;5094293;28;20021;-78
2021/09/09 06:21:00;;;;;;;21.48;13.98;;;17.90;83.50;;;;;;5104868;28;20361;-78
2021/09/09 06:23:25;;;;;;;20.85;13.75;;;18.00;82.80;;;;;;5115845;28;20042;-78
2021/09/09 06:25:51;;;;;;;21.65;14.30;;;18.10;82.60;;;;;;5113945;28;20031;-78
2021/09/09 06:28:17;;;;;;;20.13;13.25;;;18.10;82.50;;;;;;5115489;28;20039;-78
2021/09/09 06:30:42;;;;;;;20.75;13.02;;;18.20;82.40;;;;;;5114286;28;20031;-78
2021/09/09 06:33:08;;;;;;;24.05;14.32;;;18.20;82.20;;;;;;5115148;28;20027;-78
2021/09/09 06:35:34;;;;;;;22.00;14.00;;;18.30;82.00;;;;;;5111463;28;20038;-78
2021/09/09 06:37:59;;;;;;;23.70;13.40;;;18.40;81.90;;;;;;5111245;28;20028;-78
2021/09/09 06:40:25;;;;;;;23.23;13.73;;;18.50;81.60;;;;;;5097868;28;20030;-78
2021/09/09 06:42:51;;;;;;;21.88;13.40;;;18.50;81.20;;;;;;5114973;28;20023;-78
2021/09/09 06:45:16;;;;;;;20.55;13.32;;;18.60;81.10;;;;;;5097529;28;20042;-78
2021/09/09 06:47:42;;;;;;;21.73;14.35;;;18.60;80.90;;;;;;5096980;28;20032;-78
2021/09/09 06:50:08;;;;;;;22.00;13.38;;;18.70;80.60;;;;;;5094122;28;20032;-78
2021/09/09 06:52:34;;;;;;;29.38;14.13;;;18.80;80.40;;;;;;5060902;28;20032;-78
2021/09/09 06:55:00;;;;;;;22.35;13.35;;;18.80;80.10;;;;;;5097961;28;20376;-79
2021/09/09 06:57:26;;;;;;;25.60;13.15;;;18.90;79.80;;;;;;5103139;28;20070;-79
2021/09/09 06:59:52;;;;;;;26.48;13.90;;;19.00;79.50;;;;;;5094011;28;20059;-79
2021/09/09 07:02:17;;;;;;;26.45;12.75;;;19.10;79.50;;;;;;5112062;28;20035;-78
2021/09/09 07:04:43;;;;;;;24.70;12.98;;;19.30;79.40;;;;;;5096855;28;20040;-78
2021/09/09 07:07:08;;;;;;;21.95;12.55;;;19.40;79.00;;;;;;5066303;28;20028;-77
2021/09/09 07:09:34;;;;;;;23.17;12.75;;;19.40;78.50;;;;;;5091883;28;20031;-78
2021/09/09 07:12:00;;;;;;;30.27;13.75;;;19.60;78.30;;;;;;5108067;28;20059;-78
2021/09/09 07:14:26;;;;;;;23.55;13.68;;;19.70;77.80;;;;;;5110084;28;20485;-78
2021/09/09 07:16:52;;;;;;;26.25;12.07;;;19.80;77.70;;;;;;5113765;28;20042;-78
2021/09/09 07:19:17;;;;;;;25.80;12.63;;;19.90;77.30;;;;;;5095388;28;20677;-78
2021/09/09 07:21:43;;;;;;;27.90;12.25;;;20.00;76.90;;;;;;5115116;28;20027;-79
2021/09/09 07:24:09;;;;;;;24.42;11.88;;;20.20;76.60;;;;;;5097065;28;20600;-79
2021/09/09 07:26:35;;;;;;;25.15;11.90;;;20.40;76.40;;;;;;5113649;28;20053;-78
2021/09/09 07:29:01;;;;;;;18.23;11.43;;;20.40;75.70;;;;;;5103532;28;20032;-78
2021/09/09 07:31:27;;;;;;;17.67;10.25;;;20.60;75.00;;;;;;5094408;28;20107;-80
2021/09/09 07:33:52;;;;;;;16.65;10.73;;;20.70;74.80;;;;;;5106932;28;20418;-80
2021/09/09 07:36:18;;;;;;;16.02;9.95;;;20.80;74.60;;;;;;5094999;28;20039;-79
2021/09/09 07:38:44;;;;;;;17.45;10.55;;;21.00;74.20;;;;;;5092677;28;20380;-79
2021/09/09 07:41:09;;;;;;;14.65;9.80;;;21.10;73.50;;;;;;5109240;28;20032;-79
2021/09/09 07:43:35;;;;;;;14.50;9.65;;;21.20;73.30;;;;;;5114758;28;20016;-79
2021/09/09 07:46:01;;;;;;;14.02;10.43;;;21.40;72.90;;;;;;5114705;28;20487;-79
2021/09/09 07:48:27;;;;;;;18.27;9.93;;;21.50;71.80;;;;;;5096440;28;20024;-79
2021/09/09 07:50:53;;;;;;;16.48;10.30;;;21.60;71.90;;;;;;5114547;28;20023;-79
2021/09/09 07:53:19;;;;;;;19.70;10.52;;;21.70;71.30;;;;;;5112972;28;20100;-79
2021/09/09 07:55:44;;;;;;;13.27;9.60;;;21.70;71.00;;;;;;5112840;28;20035;-79
2021/09/09 07:58:10;;;;;;;14.35;8.52;;;21.80;71.20;;;;;;5113837;28;20123;-80
2021/09/09 08:00:36;;;;;;;16.08;10.25;;;21.90;70.80;;;;;;5113881;28;20058;-80
2021/09/09 08:03:01;;;;;;;13.02;9.18;;;22.00;70.80;;;;;;5112667;28;20027;-80
2021/09/09 08:05:27;;;;;;;16.90;10.52;;;22.10;71.10;;;;;;5114114;28;20035;-80
2021/09/09 08:07:53;;;;;;;16.17;10.45;;;22.30;71.50;;;;;;5114268;28;20098;-80
2021/09/09 08:10:18;;;;;;;16.80;10.57;;;22.40;71.10;;;;;;5113039;28;20034;-80
2021/09/09 08:12:47;;;;;;;15.70;10.05;;;22.50;70.30;;;;;;5113064;28;20020;-80
2021/09/09 08:15:14;;;;;;;17.38;11.13;;;22.50;70.60;;;;;;5114206;28;20357;-80
2021/09/09 08:17:41;;;;;;;16.95;11.27;;;22.40;71.60;;;;;;5114212;28;20028;-80
2021/09/09 08:20:08;;;;;;;17.25;11.38;;;22.20;72.20;;;;;;5112706;28;20169;-80
2021/09/09 08:22:33;;;;;;;16.05;11.23;;;22.10;73.00;;;;;;5112878;28;20020;-80
2021/09/09 08:24:59;;;;;;;16.60;10.82;;;22.10;73.00;;;;;;5114119;28;20099;-80
2021/09/09 08:27:25;;;;;;;14.20;10.25;;;22.20;72.70;;;;;;5078865;28;20381;-80
2021/09/09 08:29:50;;;;;;;14.75;9.95;;;22.30;72.40;;;;;;5112733;28;20031;-80
2021/09/09 08:32:16;;;;;;;15.82;9.27;;;22.40;72.80;;;;;;5113874;28;20023;-79
2021/09/09 08:34:42;;;;;;;13.38;9.55;;;22.50;72.90;;;;;;5112814;28;20035;-80
2021/09/09 08:37:08;;;;;;;14.98;9.02;;;22.60;72.30;;;;;;5112757;28;20023;-80
2021/09/09 08:39:33;;;;;;;14.90;9.35;;;22.60;72.90;;;;;;5112841;28;20027;-80
2021/09/09 08:41:59;;;;;;;14.80;8.52;;;22.60;72.80;;;;;;5113779;28;20480;-80
2021/09/09 08:44:25;;;;;;;12.80;9.27;;;22.70;72.90;;;;;;5114088;28;20093;-80
2021/09/09 08:46:51;;;;;;;13.15;8.45;;;22.80;72.40;;;;;;5112564;28;20407;-80
2021/09/09 08:49:24;;;;;;;13.30;9.40;;;23.10;72.20;;;;;;5113812;28;20457;-80
2021/09/09 08:51:53;;;;;;;15.27;9.10;;;23.30;70.80;;;;;;5115619;28;20019;-80
2021/09/09 08:54:20;;;;;;;12.93;9.10;;;23.50;70.90;;;;;;5118045;28;20531;-80
2021/09/09 08:56:46;;;;;;;12.85;9.15;;;23.60;70.20;;;;;;5116661;28;20384;-80
2021/09/09 08:59:12;;;;;;;13.73;8.60;;;23.70;69.50;;;;;;5117730;28;20058;-80
2021/09/09 09:01:57;;;;;;;11.68;8.57;;;23.80;70.10;;;;;;5116666;28;20028;-80
2021/09/09 09:04:23;;;;;;;13.90;9.07;;;24.00;70.40;;;;;;5117835;28;20024;-80
2021/09/09 09:06:50;;;;;;;18.20;9.10;;;24.10;69.50;;;;;;5099729;28;20039;-80
2021/09/09 09:09:19;;;;;;;10.85;8.23;;;24.30;69.00;;;;;;5116824;28;20102;-80
2021/09/09 09:11:49;;;;;;;11.40;8.40;;;24.40;68.90;;;;;;5099940;28;20024;-80
2021/09/09 09:14:18;;;;;;;11.23;8.27;;;24.50;68.90;;;;;;5116291;28;20495;-80
2021/09/09 09:16:49;;;;;;;12.48;8.77;;;24.60;68.00;;;;;;5117628;28;20033;-80
2021/09/09 09:19:18;;;;;;;11.75;7.95;;;24.70;68.40;;;;;;5116166;28;20028;-80
2021/09/09 09:21:46;;;;;;;11.70;8.30;;;24.80;68.70;;;;;;5116308;28;20506;-81
2021/09/09 09:24:18;;;;;;;15.75;8.88;;;25.00;68.50;;;;;;5117226;28;20035;-80
2021/09/09 09:27:23;;;;;;;12.48;8.65;;;25.10;68.20;;;;;;5115744;28;20480;-80
2021/09/09 09:30:09;;;;;;;14.40;8.60;;;25.40;68.40;;;;;;5105990;28;20048;-80
2021/09/09 09:32:43;;;;;;;11.55;7.90;;;25.30;67.80;;;;;;5109880;28;20031;-80
2021/09/09 09:35:11;;;;;;;11.63;8.18;;;25.20;68.00;;;;;;5095029;28;20028;-81
2021/09/09 09:37:48;;;;;;;15.90;9.23;;;25.10;68.80;;;;;;5093877;28;20107;-80
2021/09/09 09:40:22;;;;;;;14.65;8.70;;;25.10;67.60;;;;;;5095127;28;20157;-80
2021/09/09 09:42:48;;;;;;;13.15;9.40;;;25.10;67.20;;;;;;5095276;28;20065;-80
2021/09/09 09:45:14;;;;;;;12.98;8.45;;;25.10;67.60;;;;;;5095287;28;20028;-80
2021/09/09 09:47:40;;;;;;;15.48;9.23;;;25.10;68.20;;;;;;5077824;28;20046;-81
2021/09/09 09:50:21;;;;;;;10.68;8.38;;;25.10;68.10;;;;;;5093641;28;20392;-80
2021/09/09 09:52:47;;;;;;;16.45;9.05;;;25.10;67.70;;;;;;5095760;28;20016;-81
2021/09/09 09:55:12;;;;;;;16.08;9.77;;;25.20;67.90;;;;;;5093432;28;20107;-80
2021/09/09 09:57:54;;;;;;;14.52;9.88;;;25.40;68.10;;;;;;5095594;28;20123;-81
2021/09/09 10:00:21;;;;;;;16.60;9.55;;;25.50;67.70;;;;;;5095948;28;20051;-80
2021/09/09 10:02:48;;;;;;;15.52;9.95;;;25.60;67.20;;;;;;5095819;28;20095;-81
2021/09/09 10:05:14;;;;;;;15.38;10.75;;;25.60;66.80;;;;;;5094952;28;20036;-81
2021/09/09 10:07:40;;;;;;;14.05;9.48;;;25.70;67.90;;;;;;5096284;28;20843;-81
2021/09/09 10:10:07;;;;;;;24.73;11.43;;;25.80;67.30;;;;;;5096173;28;20028;-81
2021/09/09 10:12:33;;;;;;;14.85;11.40;;;25.90;66.70;;;;;;5115191;28;20036;-80
2021/09/09 10:15:05;;;;;;;15.73;11.43;;;26.00;66.70;;;;;;5116533;28;20547;-81
2021/09/09 10:17:32;;;;;;;14.75;10.52;;;26.00;66.10;;;;;;5116306;28;20024;-80
2021/09/09 10:20:31;;;;;;;18.80;11.43;;;26.10;66.50;;;;;;5113881;28;20372;-75
2021/09/09 10:23:01;;;;;;;17.65;9.95;;;26.20;66.90;;;;;;5113671;28;20479;-75
2021/09/09 10:25:53;;;;;;;12.02;9.77;;;26.30;67.50;;;;;;5107793;28;20059;-75
2021/09/09 10:28:41;;;;;;;17.35;9.73;;;26.40;67.20;;;;;;5093287;28;20059;-75
2021/09/09 10:31:07;;;;;;;11.07;9.15;;;26.50;67.50;;;;;;5094213;28;20024;-75
2021/09/09 10:33:34;;;;;;;15.77;9.85;;;26.50;67.60;;;;;;5102245;28;20454;-75
2021/09/09 10:36:00;;;;;;;12.55;8.63;;;26.60;67.60;;;;;;5100660;28;20063;-76
2021/09/09 10:38:30;;;;;;;18.70;9.13;;;26.60;68.10;;;;;;5093833;28;20032;-76
2021/09/09 10:40:57;;;;;;;19.30;8.55;;;26.60;68.50;;;;;;5108116;28;20106;-78
2021/09/09 10:43:26;;;;;;;12.35;7.90;;;26.70;68.40;;;;;;5103863;28;20043;-78
2021/09/09 10:46:04;;;;;;;12.40;7.40;;;26.80;67.50;;;;;;5104188;28;20393;-76
2021/09/09 10:48:31;;;;;;;12.65;8.25;;;26.90;67.50;;;;;;5101525;28;20036;-76
2021/09/09 10:51:02;;;;;;;10.75;7.15;;;27.00;67.30;;;;;;5098646;28;20625;-77
2021/09/09 10:53:42;;;;;;;15.45;8.07;;;27.00;67.70;;;;;;5099085;28;20077;-76
2021/09/09 10:56:20;;;;;;;10.05;7.57;;;27.10;67.60;;;;;;5111446;28;20046;-78
2021/09/09 10:58:53;;;;;;;12.20;7.43;;;27.10;68.10;;;;;;5105208;28;20082;-80
2021/09/09 11:01:19;;;;;;;12.32;7.88;;;27.20;67.50;;;;;;5093535;28;20032;-77
2021/09/09 11:03:46;;;;;;;12.43;7.38;;;27.40;67.40;;;;;;5089542;28;20031;-79
2021/09/09 11:06:14;;;;;;;12.95;7.20;;;27.40;67.20;;;;;;5098789;28;20039;-78
2021/09/09 11:08:43;;;;;;;13.93;8.38;;;27.50;67.20;;;;;;5100977;28;20103;-78
2021/09/09 11:11:15;;;;;;;13.98;8.00;;;27.60;66.30;;;;;;5111932;28;20028;-79
2021/09/09 11:13:40;;;;;;;12.20;6.95;;;27.70;66.70;;;;;;5104432;28;20028;-79
2021/09/09 11:16:19;;;;;;;11.43;6.85;;;27.80;66.60;;;;;;5090719;28;20435;-79
2021/09/09 11:18:45;;;;;;;14.88;7.53;;;27.80;65.70;;;;;;5101614;28;20020;-78
2021/09/09 11:21:11;;;;;;;11.55;6.93;;;27.90;65.60;;;;;;5099940;28;20379;-78
2021/09/09 11:23:37;;;;;;;10.77;7.05;;;27.90;65.70;;;;;;5112915;28;20034;-78
2021/09/09 11:26:09;;;;;;;11.10;7.70;;;28.00;65.50;;;;;;5108221;28;20114;-78
2021/09/09 11:28:35;;;;;;;10.20;6.95;;;28.00;65.40;;;;;;5092776;28;20424;-77
2021/09/09 11:31:15;;;;;;;14.40;6.72;;;28.10;65.50;;;;;;5098957;28;20046;-78
2021/09/09 11:34:04;;;;;;;8.75;5.85;;;28.10;65.30;;;;;;5093398;28;20556;-77
2021/09/09 11:36:38;;;;;;;6.82;5.53;;;28.10;65.20;;;;;;5095432;28;20028;-76
2021/09/09 11:39:10;;;;;;;8.88;5.70;;;28.20;65.00;;;;;;5075358;28;20385;-77
2021/09/09 11:41:38;;;;;;;9.77;5.45;;;28.30;65.00;;;;;;5098469;28;20032;-77
2021/09/09 11:44:05;;;;;;;7.38;4.90;;;28.30;64.50;;;;;;5097383;28;20073;-76
2021/09/09 11:46:36;;;;;;;10.60;5.43;;;28.40;64.40;;;;;;5097853;28;20028;-77
2021/09/09 11:49:08;;;;;;;7.45;5.28;;;28.40;65.00;;;;;;5105213;28;20039;-77
2021/09/09 11:51:42;;;;;;;7.80;5.00;;;28.40;64.60;;;;;;5114130;28;20485;-76
2021/09/09 11:54:29;;;;;;;14.20;5.10;;;28.50;64.50;;;;;;5099213;28;20586;-76
2021/09/09 11:57:09;;;;;;;11.48;5.15;;;28.50;64.70;;;;;;5101263;28;20028;-77
2021/09/09 11:59:38;;;;;;;9.80;4.70;;;28.30;65.00;;;;;;5103081;28;20515;-77
2021/09/09 12:02:09;;;;;;;9.30;4.88;;;28.10;65.00;;;;;;5104603;28;20052;-77
2021/09/09 12:04:41;;;;;;;10.93;4.80;;;28.00;65.80;;;;;;5084655;28;20046;-77
2021/09/09 12:07:17;;;;;;;8.15;4.90;;;27.90;67.20;;;;;;5095775;28;20035;-77
2021/09/09 12:09:57;;;;;;;10.80;5.28;;;27.90;66.80;;;;;;5111436;28;20384;-77
2021/09/09 12:12:23;;;;;;;9.20;4.90;;;27.80;66.60;;;;;;5112380;28;20032;-76
2021/09/09 12:15:09;;;;;;;7.78;4.82;;;27.90;66.70;;;;;;5113783;28;20103;-77
2021/09/09 12:17:36;;;;;;;7.25;4.70;;;28.00;66.80;;;;;;5092777;28;20054;-79
2021/09/09 12:20:08;;;;;;;9.40;4.68;;;28.10;66.00;;;;;;5095862;28;20027;-79
2021/09/09 12:22:56;;;;;;;8.55;4.78;;;28.00;66.20;;;;;;5113398;28;20080;-79
2021/09/09 12:25:31;;;;;;;11.00;4.90;;;27.90;66.40;;;;;;5104397;28;20032;-79
2021/09/09 12:28:03;;;;;;;8.18;4.43;;;27.90;66.40;;;;;;5112781;28;20031;-79
2021/09/09 12:30:37;;;;;;;6.85;4.55;;;27.90;66.40;;;;;;5114055;28;20073;-80
2021/09/09 12:33:28;;;;;;;7.97;4.63;;;27.90;66.50;;;;;;5093889;28;20465;-80